createdAt,value
2022-12-17T00:01:35.229Z,70.96
2022-12-17T00:04:23.395Z,70.83
2022-12-17T00:07:09.095Z,70.19
2022-12-17T00:09:55.454Z,70.37
2022-12-17T00:12:41.874Z,70.72
2022-12-17T00:15:29.249Z,70.74
2022-12-17T00:18:21.338Z,70.69
2022-12-17T00:21:11.395Z,70.14
2022-12-17T00:23:56.843Z,69.85
2022-12-17T00:26:42.613Z,69.88
2022-12-17T00:29:28.111Z,69.77
2022-12-17T00:32:14.804Z,69.48
2022-12-17T00:35:00.127Z,70.60
2022-12-17T00:37:45.799Z,71.08
2022-12-17T00:40:31.158Z,71.73
2022-12-17T00:43:20.198Z,71.76
2022-12-17T00:46:07.367Z,71.76
2022-12-17T00:48:54.744Z,71.35
2022-12-17T00:51:41.883Z,70.81
2022-12-17T00:54:27.511Z,70.73
2022-12-17T00:57:12.853Z,71.20
2022-12-17T00:59:58.034Z,71.33
2022-12-17T01:02:44.461Z,71.47
2022-12-17T01:05:31.377Z,71.69
2022-12-17T01:08:25.487Z,71.71
2022-12-17T01:11:11.095Z,72.33
2022-12-17T01:13:56.824Z,72.95
2022-12-17T01:16:42.558Z,73.53
2022-12-17T01:19:28.031Z,73.76
2022-12-17T01:22:15.033Z,73.56
2022-12-17T01:25:00.313Z,73.84
2022-12-17T01:27:45.842Z,73.60
2022-12-17T01:30:31.276Z,73.93
2022-12-17T01:33:20.033Z,74.01
2022-12-17T01:36:05.551Z,73.85
2022-12-17T01:38:52.694Z,73.67
2022-12-17T01:41:38.673Z,73.34
2022-12-17T01:44:57.108Z,73.49
2022-12-17T01:47:43.127Z,72.98
2022-12-17T01:50:29.772Z,72.97
2022-12-17T01:53:18.549Z,73.24
2022-12-17T01:56:06.786Z,73.65
2022-12-17T01:58:53.728Z,73.81
2022-12-17T02:01:39.922Z,73.55
2022-12-17T02:04:27.369Z,73.01
2022-12-17T02:07:21.983Z,73.07
2022-12-17T02:10:17.828Z,73.20
2022-12-17T02:13:09.844Z,73.82
2022-12-17T02:16:04.107Z,74.36
2022-12-17T02:19:01.797Z,74.53
2022-12-17T02:21:49.611Z,74.22
2022-12-17T02:24:46.628Z,74.11
2022-12-17T02:27:34.166Z,73.21
2022-12-17T02:30:25.103Z,72.45
2022-12-17T02:33:12.132Z,72.24
2022-12-17T02:36:13.196Z,72.53
2022-12-17T02:38:59.147Z,73.04
2022-12-17T02:41:47.738Z,73.44
2022-12-17T02:44:39.203Z,73.34
2022-12-17T02:47:28.562Z,73.06
2022-12-17T02:50:15.018Z,72.95
2022-12-17T02:53:06.501Z,73.08
2022-12-17T02:55:53.035Z,72.87
2022-12-17T02:58:38.788Z,73.17
2022-12-17T03:01:26.223Z,74.45
2022-12-17T03:04:12.046Z,74.97
2022-12-17T03:06:58.488Z,75.28
2022-12-17T03:09:44.886Z,74.61
2022-12-17T03:12:30.442Z,74.19
2022-12-17T03:15:15.800Z,73.99
2022-12-17T03:18:02.886Z,73.27
2022-12-17T03:20:48.371Z,72.94
2022-12-17T03:23:34.410Z,73.25
2022-12-17T03:26:21.549Z,73.73
2022-12-17T03:29:07.612Z,73.54
2022-12-17T03:31:53.067Z,72.92
2022-12-17T03:34:39.827Z,73.04
2022-12-17T03:37:25.384Z,73.51
2022-12-17T03:40:10.847Z,74.57
2022-12-17T03:42:56.527Z,74.20
2022-12-17T03:45:42.252Z,74.07
2022-12-17T03:48:29.951Z,74.18
2022-12-17T03:51:17.579Z,74.73
2022-12-17T03:54:04.071Z,74.51
2022-12-17T03:56:49.563Z,74.28
2022-12-17T03:59:35.123Z,73.99
2022-12-17T04:02:32.429Z,74.10
2022-12-17T04:05:20.383Z,73.93
2022-12-17T04:08:07.210Z,74.28
2022-12-17T04:10:52.439Z,74.71
2022-12-17T04:13:41.101Z,75.37
2022-12-17T04:16:31.130Z,75.22
2022-12-17T04:19:17.265Z,75.37
2022-12-17T04:22:02.936Z,75.02
2022-12-17T04:24:50.033Z,75.41
2022-12-17T04:27:35.595Z,75.56
2022-12-17T04:30:21.231Z,75.44
2022-12-17T04:33:07.098Z,75.51
2022-12-17T04:35:52.510Z,75.22
2022-12-17T04:38:38.281Z,74.91
2022-12-17T04:41:25.326Z,74.77
2022-12-17T04:44:10.741Z,74.48
2022-12-17T04:46:56.229Z,75.05
2022-12-17T04:49:41.838Z,74.68
2022-12-17T04:52:27.445Z,74.40
2022-12-17T04:55:12.810Z,74.45
2022-12-17T04:57:59.394Z,74.96
2022-12-17T05:00:44.961Z,74.32
2022-12-17T05:03:33.054Z,74.00
2022-12-17T05:06:18.972Z,73.57
2022-12-17T05:09:05.010Z,73.71
2022-12-17T05:11:50.671Z,74.15
2022-12-17T05:14:37.452Z,74.74
2022-12-17T05:17:22.874Z,74.65
2022-12-17T05:20:08.175Z,73.84
2022-12-17T05:22:53.868Z,73.63
2022-12-17T05:25:39.507Z,73.62
2022-12-17T05:28:25.031Z,73.92
2022-12-17T05:31:12.789Z,73.34
2022-12-17T05:34:00.641Z,72.84
2022-12-17T05:36:46.386Z,73.01
2022-12-17T05:39:31.709Z,72.93
2022-12-17T05:42:17.047Z,73.03
2022-12-17T05:45:03.723Z,72.88
2022-12-17T05:47:50.421Z,73.36
2022-12-17T05:50:35.623Z,73.88
2022-12-17T05:53:22.853Z,74.53
2022-12-17T05:56:08.718Z,74.87
2022-12-17T05:58:54.012Z,74.41
2022-12-17T06:01:39.693Z,74.19
2022-12-17T06:04:28.177Z,74.11
2022-12-17T06:07:13.519Z,73.91
2022-12-17T06:09:58.867Z,74.51
2022-12-17T06:12:44.223Z,74.33
2022-12-17T06:15:29.597Z,73.70
2022-12-17T06:18:17.285Z,73.66
2022-12-17T06:21:04.676Z,73.50
2022-12-17T06:23:55.182Z,73.54
2022-12-17T06:26:40.858Z,73.82
2022-12-17T06:29:28.152Z,74.52
2022-12-17T06:32:14.485Z,75.05
2022-12-17T06:34:59.847Z,74.39
2022-12-17T06:37:46.843Z,74.34
2022-12-17T06:40:32.140Z,74.47
2022-12-17T06:43:26.136Z,74.02
2022-12-17T06:46:11.536Z,74.22
2022-12-17T06:48:56.882Z,73.83
2022-12-17T06:51:47.661Z,74.20
2022-12-17T06:54:34.354Z,73.90
2022-12-17T06:57:20.273Z,74.33
2022-12-17T07:00:06.236Z,74.67
2022-12-17T07:02:52.563Z,74.30
2022-12-17T07:05:38.097Z,74.09
2022-12-17T07:08:23.514Z,73.95
2022-12-17T07:11:10.635Z,73.31
2022-12-17T07:13:56.180Z,73.65
2022-12-17T07:16:41.795Z,72.98
2022-12-17T07:19:27.875Z,73.04
2022-12-17T07:22:14.185Z,72.74
2022-12-17T07:25:00.203Z,73.27
2022-12-17T07:27:47.429Z,73.16
2022-12-17T07:30:32.925Z,72.68
2022-12-17T07:33:19.303Z,72.78
2022-12-17T07:36:04.662Z,72.62
2022-12-17T07:38:50.548Z,72.56
2022-12-17T07:41:36.519Z,72.87
2022-12-17T07:44:26.119Z,72.81
2022-12-17T07:47:11.499Z,73.74
2022-12-17T07:49:56.911Z,74.11
2022-12-17T07:52:42.717Z,73.80
2022-12-17T07:55:28.188Z,74.18
2022-12-17T07:58:17.889Z,74.87
2022-12-17T08:01:04.769Z,74.03
2022-12-17T08:03:51.216Z,73.66
2022-12-17T08:06:37.565Z,73.83
2022-12-17T08:09:22.848Z,74.20
2022-12-17T08:12:08.191Z,73.95
2022-12-17T08:14:53.436Z,73.78
2022-12-17T08:17:40.095Z,74.33
2022-12-17T08:20:26.804Z,74.34
2022-12-17T08:23:19.455Z,74.09
2022-12-17T08:26:04.853Z,73.90
2022-12-17T08:28:51.187Z,73.35
2022-12-17T08:31:37.740Z,73.84
2022-12-17T08:34:24.812Z,74.15
2022-12-17T08:37:10.137Z,74.76
2022-12-17T08:39:56.020Z,74.81
2022-12-17T08:42:50.416Z,75.07
2022-12-17T08:45:35.789Z,74.90
2022-12-17T08:48:29.582Z,75.30
2022-12-17T08:51:16.442Z,75.21
2022-12-17T08:54:01.835Z,74.75
2022-12-17T08:56:47.086Z,74.43
2022-12-17T08:59:32.697Z,74.52
2022-12-17T09:02:18.227Z,74.93
2022-12-17T09:05:03.698Z,75.65
2022-12-17T09:07:50.350Z,76.56
2022-12-17T09:10:35.805Z,75.83
2022-12-17T09:13:21.894Z,74.80
2022-12-17T09:16:11.005Z,74.65
2022-12-17T09:18:56.399Z,73.93
2022-12-17T09:21:42.476Z,73.73
2022-12-17T09:24:33.092Z,73.78
2022-12-17T09:27:21.895Z,73.78
2022-12-17T09:30:07.379Z,74.22
2022-12-17T09:32:52.805Z,74.27
2022-12-17T09:35:37.301Z,73.74
2022-12-17T09:38:22.822Z,74.05
2022-12-17T09:41:10.360Z,73.98
2022-12-17T09:44:03.826Z,73.77
2022-12-17T09:46:54.548Z,73.41
2022-12-17T09:49:43.364Z,73.86
2022-12-17T09:52:38.498Z,73.62
2022-12-17T09:55:41.119Z,73.74
2022-12-17T09:58:38.093Z,73.38
2022-12-17T10:01:24.756Z,73.25
2022-12-17T10:04:10.724Z,73.36
2022-12-17T10:06:56.163Z,73.68
2022-12-17T10:09:44.359Z,73.40
2022-12-17T10:12:33.368Z,72.85
2022-12-17T10:15:19.700Z,72.90
2022-12-17T10:18:05.269Z,73.60
2022-12-17T10:20:57.090Z,73.61
2022-12-17T10:23:44.147Z,73.89
2022-12-17T10:26:38.402Z,73.95
2022-12-17T10:29:28.482Z,73.58
2022-12-17T10:32:18.963Z,73.15
2022-12-17T10:35:05.829Z,73.29
2022-12-17T10:37:54.419Z,73.73
2022-12-17T10:40:44.416Z,73.63
2022-12-17T10:43:44.350Z,73.43
2022-12-17T10:46:29.708Z,73.69
2022-12-17T10:49:29.365Z,73.21
2022-12-17T10:52:19.446Z,73.29
2022-12-17T10:55:15.154Z,73.82
2022-12-17T10:58:02.619Z,73.46
2022-12-17T11:00:50.771Z,73.00
2022-12-17T11:03:56.940Z,72.07
2022-12-17T11:06:44.667Z,72.46
2022-12-17T11:09:40.348Z,73.04
2022-12-17T11:12:30.766Z,72.62
2022-12-17T11:15:23.269Z,72.18
2022-12-17T11:18:11.752Z,71.80
2022-12-17T11:21:06.040Z,71.84
2022-12-17T11:23:55.296Z,71.87
2022-12-17T11:26:43.484Z,72.24
2022-12-17T11:29:32.320Z,72.38
2022-12-17T11:32:34.136Z,71.99
2022-12-17T11:35:28.642Z,71.96
2022-12-17T11:38:29.058Z,72.16
2022-12-17T11:41:26.363Z,71.86
2022-12-17T11:44:21.710Z,71.53
2022-12-17T11:47:14.295Z,71.48
2022-12-17T11:50:08.194Z,70.78
2022-12-17T11:53:04.099Z,71.27
2022-12-17T11:55:57.707Z,70.83
2022-12-17T11:58:53.588Z,70.25
2022-12-17T12:01:46.703Z,70.82
2022-12-17T12:04:45.443Z,71.00
2022-12-17T12:07:38.460Z,71.13
2022-12-17T12:10:32.923Z,70.94
2022-12-17T12:13:29.060Z,70.98
2022-12-17T12:16:25.425Z,71.28
2022-12-17T12:19:19.221Z,71.08
2022-12-17T12:22:15.952Z,70.46
2022-12-17T12:25:27.162Z,70.02
2022-12-17T12:28:22.263Z,70.22
2022-12-17T12:31:15.229Z,70.59
2022-12-17T12:34:09.036Z,69.41
2022-12-17T12:36:56.385Z,69.01
2022-12-17T12:39:45.915Z,69.19
2022-12-17T12:42:38.008Z,68.77
2022-12-17T12:45:36.271Z,68.99
2022-12-17T12:48:28.577Z,68.91
2022-12-17T12:51:21.047Z,69.76
2022-12-17T12:54:15.390Z,70.25
2022-12-17T12:57:06.024Z,70.16
2022-12-17T12:59:53.696Z,69.43
2022-12-17T13:02:50.676Z,68.70
2022-12-17T13:05:34.508Z,68.74
2022-12-17T13:08:06.806Z,68.82
2022-12-17T13:10:35.761Z,68.95
2022-12-17T13:13:14.379Z,69.40
2022-12-17T13:15:47.220Z,69.32
2022-12-17T13:18:25.163Z,68.98
2022-12-17T13:21:02.607Z,68.85
2022-12-17T13:23:35.049Z,68.41
2022-12-17T13:26:20.429Z,68.28
2022-12-17T13:29:13.027Z,68.22
2022-12-17T13:31:59.674Z,68.60
2022-12-17T13:34:36.799Z,68.04
2022-12-17T13:37:13.340Z,67.28
2022-12-17T13:39:49.589Z,67.84
2022-12-17T13:42:21.396Z,68.21
2022-12-17T13:44:49.911Z,67.87
2022-12-17T13:47:23.156Z,67.78
2022-12-17T13:50:17.063Z,67.89
2022-12-17T13:52:40.363Z,67.92
2022-12-17T13:55:14.571Z,67.59
2022-12-17T13:57:47.164Z,67.78
2022-12-17T14:00:22.359Z,67.62
2022-12-17T14:02:51.482Z,66.88
2022-12-17T14:05:26.811Z,66.83
2022-12-17T14:07:55.465Z,67.09
2022-12-17T14:10:25.860Z,66.93
2022-12-17T14:13:04.356Z,66.91
2022-12-17T14:15:33.623Z,67.03
2022-12-17T14:18:02.568Z,67.48
2022-12-17T14:20:33.835Z,67.39
2022-12-17T14:23:05.247Z,67.67
2022-12-17T14:25:38.093Z,67.31
2022-12-17T14:28:08.084Z,66.87
2022-12-17T14:30:46.369Z,66.84
2022-12-17T14:33:28.807Z,66.73
2022-12-17T14:35:58.203Z,66.85
2022-12-17T14:38:38.040Z,66.79
2022-12-17T14:41:27.057Z,67.36
2022-12-17T14:44:00.507Z,67.40
2022-12-17T14:46:28.652Z,67.67
2022-12-17T14:49:03.814Z,67.43
2022-12-17T14:51:35.024Z,67.78
2022-12-17T14:54:19.629Z,68.03
2022-12-17T14:56:50.667Z,67.78
2022-12-17T14:59:27.358Z,67.29
2022-12-17T15:01:56.479Z,67.30
2022-12-17T15:04:25.023Z,67.86
2022-12-17T15:06:55.824Z,67.89
2022-12-17T15:09:23.732Z,68.47
2022-12-17T15:11:53.042Z,68.05
2022-12-17T15:14:20.901Z,68.08
2022-12-17T15:16:48.930Z,67.62
2022-12-17T15:19:17.151Z,67.82
2022-12-17T15:21:45.160Z,68.12
2022-12-17T15:24:18.276Z,67.94
2022-12-17T15:26:47.145Z,67.76
2022-12-17T15:29:16.438Z,67.76
2022-12-17T15:31:44.437Z,67.49
2022-12-17T15:34:13.393Z,67.80
2022-12-17T15:36:41.548Z,68.14
2022-12-17T15:39:09.735Z,68.38
2022-12-17T15:41:55.066Z,69.01
2022-12-17T15:44:24.284Z,68.87
2022-12-17T15:46:52.261Z,68.38
2022-12-17T15:49:22.991Z,68.99
2022-12-17T15:51:51.054Z,69.26
2022-12-17T15:54:18.962Z,69.55
2022-12-17T15:56:53.767Z,68.90
2022-12-17T15:59:22.310Z,68.75
2022-12-17T16:01:51.862Z,68.94
2022-12-17T16:04:24.899Z,69.10
2022-12-17T16:06:53.509Z,68.77
2022-12-17T16:09:24.457Z,68.64
2022-12-17T16:11:54.733Z,68.75
2022-12-17T16:14:25.000Z,68.87
2022-12-17T16:16:54.278Z,68.60
2022-12-17T16:19:23.564Z,69.38
2022-12-17T16:21:51.486Z,69.52
2022-12-17T16:24:21.988Z,69.59
2022-12-17T16:26:53.331Z,70.24
2022-12-17T16:29:21.614Z,69.49
2022-12-17T16:31:50.200Z,69.80
2022-12-17T16:34:19.691Z,70.27
2022-12-17T16:36:47.689Z,70.51
2022-12-17T16:39:18.359Z,70.74
2022-12-17T16:41:48.887Z,70.32
2022-12-17T16:44:16.839Z,70.50
2022-12-17T16:46:47.389Z,71.09
2022-12-17T16:49:18.244Z,71.08
2022-12-17T16:51:54.188Z,70.97
2022-12-17T16:54:25.959Z,70.32
2022-12-17T16:56:54.893Z,70.50
2022-12-17T16:59:24.459Z,70.61
2022-12-17T17:01:53.738Z,71.02
2022-12-17T17:04:23.979Z,70.47
2022-12-17T17:06:54.815Z,70.53
2022-12-17T17:09:23.837Z,69.73
2022-12-17T17:11:52.614Z,69.43
2022-12-17T17:14:22.278Z,69.70
2022-12-17T17:16:50.357Z,69.90
2022-12-17T17:19:19.711Z,69.08
2022-12-17T17:21:50.635Z,69.25
2022-12-17T17:24:22.437Z,69.03
2022-12-17T17:26:51.293Z,69.33
2022-12-17T17:29:19.756Z,69.60
2022-12-17T17:34:38.831Z,69.92
2022-12-17T17:37:06.836Z,70.06
2022-12-17T17:39:36.522Z,70.09
2022-12-17T17:42:05.248Z,70.24
2022-12-17T17:44:33.147Z,70.08
2022-12-17T17:47:01.599Z,69.51
2022-12-17T17:49:30.150Z,69.13
2022-12-17T17:52:13.605Z,68.81
2022-12-17T17:54:42.873Z,68.57
2022-12-17T17:57:11.762Z,68.49
2022-12-17T17:59:40.339Z,68.71
2022-12-17T18:02:10.724Z,68.88
2022-12-17T18:04:39.930Z,68.80
2022-12-17T18:07:24.911Z,69.73
2022-12-17T18:09:56.547Z,69.98
2022-12-17T18:12:42.040Z,70.63
2022-12-17T18:15:15.860Z,70.78
2022-12-17T18:17:46.163Z,70.69
2022-12-17T18:20:15.158Z,70.60
2022-12-17T18:22:43.768Z,70.12
2022-12-17T18:25:13.036Z,70.31
2022-12-17T18:27:41.033Z,70.34
2022-12-17T18:30:10.429Z,70.44
2022-12-17T18:33:03.181Z,70.84
2022-12-17T18:35:31.432Z,71.70
2022-12-17T18:37:59.975Z,71.60
2022-12-17T18:40:33.273Z,71.47
2022-12-17T18:43:19.058Z,71.57
2022-12-17T18:45:46.960Z,71.66
2022-12-17T18:48:15.124Z,71.56
2022-12-17T18:50:43.255Z,71.42
2022-12-17T18:53:11.445Z,71.25
2022-12-17T18:55:41.241Z,71.19
2022-12-17T18:58:10.476Z,71.53
2022-12-17T19:00:39.114Z,71.52
2022-12-17T19:03:08.367Z,71.27
2022-12-17T19:05:45.227Z,71.21
2022-12-17T19:08:14.496Z,70.90
2022-12-17T19:10:44.373Z,70.95
2022-12-17T19:13:12.271Z,71.78
2022-12-17T19:15:40.164Z,71.42
2022-12-17T19:18:08.072Z,71.26
2022-12-17T19:20:36.129Z,71.24
2022-12-17T19:23:04.120Z,70.80
2022-12-17T19:25:32.306Z,70.51
2022-12-17T19:28:01.792Z,71.10
2022-12-17T19:30:29.940Z,70.93
2022-12-17T19:32:57.852Z,70.83
2022-12-17T19:35:25.764Z,70.41
2022-12-17T19:37:53.664Z,70.71
2022-12-17T19:40:21.674Z,70.76
2022-12-17T19:42:49.690Z,70.25
2022-12-17T19:45:19.131Z,70.33
2022-12-17T19:47:47.323Z,70.37
2022-12-17T19:50:15.669Z,70.20
2022-12-17T19:52:43.616Z,69.82
2022-12-17T19:55:11.481Z,69.62
2022-12-17T19:57:39.378Z,69.71
2022-12-17T20:00:08.456Z,69.60
2022-12-17T20:02:41.950Z,70.15
2022-12-17T20:05:10.547Z,70.60
2022-12-17T20:07:38.609Z,70.86
2022-12-17T20:10:34.086Z,71.05
2022-12-17T20:13:02.317Z,70.18
2022-12-17T20:15:31.171Z,69.76
2022-12-17T20:18:00.430Z,69.58
2022-12-17T20:20:28.564Z,69.03
2022-12-17T20:22:56.800Z,69.00
2022-12-17T20:25:24.728Z,69.18
2022-12-17T20:27:52.686Z,68.88
2022-12-17T20:30:26.852Z,68.62
2022-12-17T20:32:54.889Z,68.90
2022-12-17T20:35:28.605Z,68.70
2022-12-17T20:37:56.630Z,68.50
2022-12-17T20:40:24.630Z,68.18
2022-12-17T20:42:52.709Z,67.61
2022-12-17T20:45:20.845Z,67.67
2022-12-17T20:47:48.755Z,67.55
2022-12-17T20:50:16.724Z,67.32
2022-12-17T20:52:45.963Z,67.41
2022-12-17T20:55:13.874Z,67.60
2022-12-17T20:57:42.275Z,67.83
2022-12-17T21:00:11.717Z,68.22
2022-12-17T21:02:39.907Z,68.35
2022-12-17T21:05:08.560Z,68.11
2022-12-17T21:07:36.514Z,68.90
2022-12-17T21:10:07.121Z,69.35
2022-12-17T21:12:49.123Z,69.95
2022-12-17T21:15:17.611Z,69.33
2022-12-17T21:17:45.680Z,69.17
2022-12-17T21:20:13.713Z,69.55
2022-12-17T21:22:42.915Z,69.85
2022-12-17T21:25:12.463Z,70.13
2022-12-17T21:27:44.528Z,70.83
2022-12-17T21:30:15.850Z,71.29
2022-12-17T21:32:43.937Z,71.29
2022-12-17T21:35:12.659Z,70.70
2022-12-17T21:37:40.654Z,69.85
2022-12-17T21:40:09.846Z,69.72
2022-12-17T21:42:56.512Z,68.97
2022-12-17T21:45:25.157Z,68.75
2022-12-17T21:47:53.223Z,68.08
2022-12-17T21:50:21.240Z,68.36
2022-12-17T21:52:49.110Z,68.69
2022-12-17T21:55:17.249Z,68.81
2022-12-17T21:57:46.596Z,68.98
2022-12-17T22:00:15.795Z,70.18
2022-12-17T22:02:44.000Z,70.57
2022-12-17T22:05:17.579Z,71.41
2022-12-17T22:07:47.867Z,70.79
2022-12-17T22:10:40.615Z,70.07
2022-12-17T22:13:27.245Z,69.01
2022-12-17T22:15:55.409Z,68.75
2022-12-17T22:18:23.364Z,68.63
2022-12-17T22:20:59.114Z,68.92
2022-12-17T22:23:27.217Z,69.07
2022-12-17T22:25:55.664Z,70.06
2022-12-17T22:28:34.802Z,69.52
2022-12-17T22:31:23.305Z,69.76
2022-12-17T22:34:16.945Z,69.58
2022-12-17T22:38:59.850Z,70.40
2022-12-17T22:42:54.843Z,70.99
2022-12-17T22:44:41.585Z,71.05
2022-12-17T22:45:24.712Z,70.98
2022-12-17T22:47:53.055Z,71.09
2022-12-17T22:50:27.472Z,70.65
2022-12-17T22:52:59.445Z,70.64
2022-12-17T22:55:27.894Z,70.62
2022-12-17T22:57:56.250Z,70.30
2022-12-17T23:00:27.711Z,70.15
2022-12-17T23:02:56.472Z,69.55
2022-12-17T23:05:25.216Z,69.45
2022-12-17T23:07:53.870Z,69.04
2022-12-17T23:10:22.763Z,69.57
2022-12-17T23:13:41.130Z,70.03
2022-12-17T23:16:13.278Z,70.08
2022-12-17T23:18:41.813Z,69.84
2022-12-17T23:21:11.303Z,70.66
2022-12-17T23:23:40.272Z,70.76
2022-12-17T23:26:09.851Z,70.64
2022-12-17T23:28:41.277Z,71.20
2022-12-17T23:31:12.949Z,71.36
2022-12-17T23:33:42.677Z,72.80
2022-12-17T23:36:13.234Z,73.24
2022-12-17T23:38:41.429Z,73.29
2022-12-17T23:41:11.937Z,73.32
2022-12-17T23:43:40.862Z,73.37
2022-12-17T23:46:11.380Z,74.30
2022-12-17T23:48:45.380Z,73.96
2022-12-17T23:51:14.773Z,73.64
2022-12-17T23:54:15.135Z,72.96
